WZZ1741 EKCH-EPGD
Flight info
| Callsign | WZZ1741 |
|---|---|
| Flight time | 0h 48m |
| Altitude | 33000 |
| Route | SIMEG Z491 TELMO DCT RUMAR L983 DOMAG T240 OGDAV |
| Aircraft | A321/M-SDE3FGHIRWY/LB1 |
Departure
| Time | 2026-04-21 19:52 |
|---|---|
| Airport | Copenhagen Kastrup Airport (EKCH) |
Arrival
| Time | 2026-04-21 20:41 |
|---|---|
| Airport | Gdańsk Lech Wałęsa Airport (EPGD) |
| Time | Latitude | Longitude | Altitude | Speed | Heading |
|---|---|---|---|---|---|
| 2026-04-21 19:40 | 55.62511 | 12.65840 | 17 ft | 0 kts | 359° |
| 2026-04-21 19:44 | 55.62509 | 12.65840 | 17 ft | 2 kts | 359° |
| 2026-04-21 19:44 | 55.62486 | 12.65841 | 17 ft | 3 kts | 359° |
| 2026-04-21 19:44 | 55.62463 | 12.65841 | 18 ft | 4 kts | 352° |
| 2026-04-21 19:44 | 55.62445 | 12.65866 | 21 ft | 4 kts | 272° |
| 2026-04-21 19:45 | 55.62444 | 12.65871 | 20 ft | 0 kts | 269° |
| 2026-04-21 19:47 | 55.62444 | 12.65864 | 20 ft | 2 kts | 269° |
| 2026-04-21 19:47 | 55.62444 | 12.65800 | 17 ft | 8 kts | 269° |
| 2026-04-21 19:48 | 55.62442 | 12.65693 | 17 ft | 10 kts | 269° |
| 2026-04-21 19:48 | 55.62441 | 12.65567 | 17 ft | 11 kts | 269° |
| 2026-04-21 19:48 | 55.62439 | 12.65423 | 17 ft | 12 kts | 268° |
| 2026-04-21 19:48 | 55.62437 | 12.65266 | 17 ft | 14 kts | 267° |
| 2026-04-21 19:49 | 55.62357 | 12.65204 | 17 ft | 17 kts | 179° |
| 2026-04-21 19:49 | 55.62223 | 12.65190 | 17 ft | 20 kts | 195° |
| 2026-04-21 19:49 | 55.62102 | 12.65059 | 17 ft | 21 kts | 213° |
| 2026-04-21 19:49 | 55.61981 | 12.64918 | 17 ft | 22 kts | 213° |
| 2026-04-21 19:50 | 55.61894 | 12.64817 | 17 ft | 22 kts | 213° |
| 2026-04-21 19:50 | 55.61719 | 12.64617 | 17 ft | 23 kts | 213° |
| 2026-04-21 19:50 | 55.61650 | 12.64446 | 17 ft | 16 kts | 266° |
| 2026-04-21 19:50 | 55.61646 | 12.64307 | 17 ft | 0 kts | 266° |
| 2026-04-21 19:51 | 55.61645 | 12.64303 | 17 ft | 2 kts | 266° |
| 2026-04-21 19:51 | 55.61643 | 12.64226 | 18 ft | 10 kts | 266° |
| 2026-04-21 19:51 | 55.61635 | 12.64098 | 21 ft | 10 kts | 251° |
| 2026-04-21 19:51 | 55.61584 | 12.64009 | 20 ft | 12 kts | 220° |
| 2026-04-21 19:52 | 55.61456 | 12.63816 | 19 ft | 52 kts | 221° |
| 2026-04-21 19:52 | 55.60997 | 12.63102 | 20 ft | 121 kts | 221° |
| 2026-04-21 19:52 | 55.60229 | 12.61913 | 40 ft | 170 kts | 221° |
| 2026-04-21 19:52 | 55.59355 | 12.60580 | 800 ft | 161 kts | 222° |
| 2026-04-21 19:53 | 55.58468 | 12.59311 | 1452 ft | 169 kts | 222° |
| 2026-04-21 19:53 | 55.57498 | 12.58035 | 1956 ft | 182 kts | 213° |
| 2026-04-21 19:53 | 55.56165 | 12.57683 | 2100 ft | 212 kts | 165° |
| 2026-04-21 19:53 | 55.54934 | 12.59169 | 2432 ft | 223 kts | 126° |
| 2026-04-21 19:54 | 55.54049 | 12.61506 | 2670 ft | 244 kts | 118° |
| 2026-04-21 19:54 | 55.53176 | 12.64235 | 3129 ft | 261 kts | 116° |
| 2026-04-21 19:54 | 55.52310 | 12.67088 | 3920 ft | 264 kts | 115° |
| 2026-04-21 19:54 | 55.51440 | 12.69949 | 4782 ft | 265 kts | 115° |
| 2026-04-21 19:55 | 55.50553 | 12.72806 | 5644 ft | 266 kts | 116° |
| 2026-04-21 19:55 | 55.49645 | 12.75668 | 6479 ft | 267 kts | 117° |
| 2026-04-21 19:55 | 55.48722 | 12.78530 | 7260 ft | 269 kts | 117° |
| 2026-04-21 19:55 | 55.47797 | 12.81376 | 7994 ft | 272 kts | 117° |
| 2026-04-21 19:56 | 55.46849 | 12.84280 | 8750 ft | 275 kts | 117° |
| 2026-04-21 19:56 | 55.45887 | 12.87217 | 9502 ft | 278 kts | 117° |
| 2026-04-21 19:56 | 55.44913 | 12.90180 | 10246 ft | 281 kts | 117° |
| 2026-04-21 19:56 | 55.43917 | 12.93211 | 10713 ft | 294 kts | 117° |
| 2026-04-21 19:57 | 55.42852 | 12.96465 | 10857 ft | 317 kts | 117° |
| 2026-04-21 19:57 | 55.41724 | 12.99916 | 10978 ft | 339 kts | 117° |
| 2026-04-21 19:57 | 55.40506 | 13.03630 | 11109 ft | 360 kts | 117° |
| 2026-04-21 19:57 | 55.39212 | 13.07556 | 11306 ft | 377 kts | 117° |
| 2026-04-21 19:58 | 55.37879 | 13.11575 | 11836 ft | 383 kts | 117° |
| 2026-04-21 19:58 | 55.36531 | 13.15631 | 12512 ft | 386 kts | 117° |
| 2026-04-21 19:58 | 55.35179 | 13.19680 | 13164 ft | 388 kts | 117° |
| 2026-04-21 19:58 | 55.33807 | 13.23783 | 13837 ft | 391 kts | 117° |
| 2026-04-21 19:59 | 55.32419 | 13.27940 | 14476 ft | 395 kts | 117° |
| 2026-04-21 19:59 | 55.31028 | 13.32113 | 15078 ft | 398 kts | 117° |
| 2026-04-21 19:59 | 55.29621 | 13.36324 | 15668 ft | 401 kts | 117° |
| 2026-04-21 19:59 | 55.28205 | 13.40559 | 16247 ft | 404 kts | 117° |
| 2026-04-21 20:00 | 55.26779 | 13.44817 | 16833 ft | 406 kts | 117° |
| 2026-04-21 20:00 | 55.25336 | 13.49113 | 17353 ft | 409 kts | 117° |
| 2026-04-21 20:00 | 55.23918 | 13.53396 | 17889 ft | 412 kts | 116° |
| 2026-04-21 20:00 | 55.22517 | 13.57794 | 18410 ft | 415 kts | 115° |
| 2026-04-21 20:01 | 55.21126 | 13.62258 | 18880 ft | 418 kts | 115° |
| 2026-04-21 20:01 | 55.19738 | 13.66740 | 19343 ft | 420 kts | 115° |
| 2026-04-21 20:01 | 55.18333 | 13.71259 | 19809 ft | 422 kts | 115° |
| 2026-04-21 20:01 | 55.16917 | 13.75782 | 20285 ft | 424 kts | 115° |
| 2026-04-21 20:02 | 55.15971 | 13.78783 | 20581 ft | 426 kts | 115° |
| 2026-04-21 20:02 | 55.14056 | 13.84816 | 21210 ft | 429 kts | 115° |
| 2026-04-21 20:02 | 55.12597 | 13.89379 | 21670 ft | 431 kts | 115° |
| 2026-04-21 20:02 | 55.11127 | 13.93963 | 22115 ft | 433 kts | 114° |
| 2026-04-21 20:03 | 55.09644 | 13.98572 | 22565 ft | 435 kts | 114° |
| 2026-04-21 20:03 | 55.08158 | 14.03195 | 22994 ft | 437 kts | 114° |
| 2026-04-21 20:03 | 55.06821 | 14.07939 | 23405 ft | 434 kts | 107° |
| 2026-04-21 20:03 | 55.05923 | 14.12942 | 23824 ft | 431 kts | 98° |
| 2026-04-21 20:04 | 55.05481 | 14.18095 | 24192 ft | 428 kts | 90° |
| 2026-04-21 20:04 | 55.05422 | 14.23228 | 24544 ft | 428 kts | 86° |
| 2026-04-21 20:04 | 55.05414 | 14.28428 | 24904 ft | 430 kts | 86° |
| 2026-04-21 20:04 | 55.05397 | 14.33643 | 25240 ft | 432 kts | 86° |
| 2026-04-21 20:05 | 55.05371 | 14.38875 | 25670 ft | 431 kts | 86° |
| 2026-04-21 20:05 | 55.05339 | 14.44073 | 26156 ft | 429 kts | 86° |
| 2026-04-21 20:05 | 55.05304 | 14.49290 | 26630 ft | 428 kts | 86° |
| 2026-04-21 20:05 | 55.05268 | 14.54469 | 27103 ft | 426 kts | 86° |
| 2026-04-21 20:06 | 55.05233 | 14.59565 | 27571 ft | 425 kts | 86° |
| 2026-04-21 20:06 | 55.05199 | 14.64713 | 28048 ft | 424 kts | 86° |
| 2026-04-21 20:06 | 55.05166 | 14.69844 | 28531 ft | 422 kts | 86° |
| 2026-04-21 20:06 | 55.05132 | 14.74956 | 29014 ft | 421 kts | 86° |
| 2026-04-21 20:07 | 55.05092 | 14.80061 | 29495 ft | 420 kts | 86° |
| 2026-04-21 20:07 | 55.05049 | 14.85136 | 29965 ft | 418 kts | 86° |
| 2026-04-21 20:07 | 55.05018 | 14.88509 | 30282 ft | 418 kts | 86° |
| 2026-04-21 20:07 | 55.04969 | 14.93572 | 30690 ft | 417 kts | 86° |
| 2026-04-21 20:08 | 55.04918 | 14.98628 | 31045 ft | 417 kts | 86° |
| 2026-04-21 20:08 | 55.04868 | 15.03693 | 31398 ft | 417 kts | 86° |
| 2026-04-21 20:08 | 55.04816 | 15.08689 | 31735 ft | 417 kts | 86° |
| 2026-04-21 20:08 | 55.04762 | 15.13746 | 32079 ft | 417 kts | 86° |
| 2026-04-21 20:09 | 55.04705 | 15.18805 | 32415 ft | 417 kts | 86° |
| 2026-04-21 20:09 | 55.04648 | 15.23863 | 32754 ft | 417 kts | 86° |
| 2026-04-21 20:09 | 55.04587 | 15.28933 | 33084 ft | 418 kts | 87° |
| 2026-04-21 20:09 | 55.04523 | 15.34021 | 33303 ft | 419 kts | 87° |
| 2026-04-21 20:10 | 55.04458 | 15.39054 | 33343 ft | 421 kts | 87° |
| 2026-04-21 20:10 | 55.04317 | 15.49277 | 33335 ft | 422 kts | 87° |
| 2026-04-21 20:11 | 55.04160 | 15.59525 | 33334 ft | 422 kts | 87° |
| 2026-04-21 20:11 | 55.03998 | 15.69791 | 33334 ft | 423 kts | 87° |
| 2026-04-21 20:12 | 55.03856 | 15.78691 | 33334 ft | 423 kts | 87° |
| 2026-04-21 20:12 | 55.03692 | 15.88964 | 33339 ft | 423 kts | 87° |
| 2026-04-21 20:13 | 55.03512 | 15.99225 | 33341 ft | 424 kts | 88° |
| 2026-04-21 20:13 | 55.03313 | 16.09504 | 33338 ft | 424 kts | 88° |
| 2026-04-21 20:14 | 55.03016 | 16.19789 | 33342 ft | 425 kts | 89° |
| 2026-04-21 20:14 | 55.02660 | 16.30034 | 33341 ft | 425 kts | 89° |
| 2026-04-21 20:15 | 55.02314 | 16.40343 | 33341 ft | 426 kts | 89° |
| 2026-04-21 20:15 | 55.01974 | 16.50659 | 33339 ft | 426 kts | 89° |
| 2026-04-21 20:16 | 55.01623 | 16.60992 | 33341 ft | 427 kts | 89° |
| 2026-04-21 20:16 | 55.01269 | 16.71268 | 33340 ft | 427 kts | 89° |
| 2026-04-21 20:17 | 55.00901 | 16.81610 | 33340 ft | 427 kts | 89° |
| 2026-04-21 20:17 | 55.00524 | 16.91965 | 33334 ft | 428 kts | 90° |
| 2026-04-21 20:17 | 55.00331 | 16.97117 | 32930 ft | 426 kts | 90° |
| 2026-04-21 20:18 | 55.00134 | 17.02274 | 32159 ft | 427 kts | 89° |
| 2026-04-21 20:18 | 54.99938 | 17.07436 | 31397 ft | 428 kts | 89° |
| 2026-04-21 20:18 | 54.99740 | 17.12616 | 30649 ft | 429 kts | 89° |
| 2026-04-21 20:18 | 54.99539 | 17.17801 | 29795 ft | 429 kts | 89° |
| 2026-04-21 20:19 | 54.99333 | 17.22998 | 28848 ft | 431 kts | 90° |
| 2026-04-21 20:19 | 54.99124 | 17.28236 | 27871 ft | 434 kts | 90° |
| 2026-04-21 20:19 | 54.98914 | 17.33421 | 26894 ft | 437 kts | 90° |
| 2026-04-21 20:19 | 54.98701 | 17.38724 | 25885 ft | 440 kts | 90° |
| 2026-04-21 20:20 | 54.98486 | 17.44073 | 24864 ft | 443 kts | 90° |
| 2026-04-21 20:20 | 54.98265 | 17.49442 | 24019 ft | 443 kts | 90° |
| 2026-04-21 20:20 | 54.98039 | 17.54767 | 23239 ft | 438 kts | 90° |
| 2026-04-21 20:20 | 54.97716 | 17.60027 | 22416 ft | 437 kts | 96° |
| 2026-04-21 20:21 | 54.96947 | 17.65148 | 21621 ft | 437 kts | 105° |
| 2026-04-21 20:21 | 54.95725 | 17.69928 | 20947 ft | 436 kts | 115° |
| 2026-04-21 20:21 | 54.94088 | 17.74277 | 20812 ft | 423 kts | 123° |
| 2026-04-21 20:21 | 54.92182 | 17.78078 | 20674 ft | 410 kts | 129° |
| 2026-04-21 20:22 | 54.90247 | 17.81602 | 20550 ft | 396 kts | 129° |
| 2026-04-21 20:22 | 54.86539 | 17.88314 | 20293 ft | 371 kts | 128° |
| 2026-04-21 20:22 | 54.84778 | 17.91497 | 20177 ft | 358 kts | 128° |
| 2026-04-21 20:23 | 54.83079 | 17.94566 | 20035 ft | 347 kts | 128° |
| 2026-04-21 20:23 | 54.81454 | 17.97493 | 19888 ft | 336 kts | 128° |
| 2026-04-21 20:23 | 54.79787 | 18.00304 | 19582 ft | 335 kts | 135° |
| 2026-04-21 20:23 | 54.77943 | 18.02766 | 19206 ft | 334 kts | 137° |
| 2026-04-21 20:24 | 54.76098 | 18.05188 | 18831 ft | 332 kts | 137° |
| 2026-04-21 20:24 | 54.74253 | 18.07593 | 18439 ft | 330 kts | 137° |
| 2026-04-21 20:24 | 54.72418 | 18.09974 | 18019 ft | 328 kts | 138° |
| 2026-04-21 20:24 | 54.70595 | 18.12340 | 17606 ft | 326 kts | 138° |
| 2026-04-21 20:25 | 54.68780 | 18.14696 | 17197 ft | 324 kts | 138° |
| 2026-04-21 20:25 | 54.67062 | 18.17170 | 16800 ft | 318 kts | 129° |
| 2026-04-21 20:25 | 54.65584 | 18.19975 | 16405 ft | 315 kts | 126° |
| 2026-04-21 20:25 | 54.64121 | 18.22786 | 16017 ft | 313 kts | 126° |
| 2026-04-21 20:26 | 54.62669 | 18.25563 | 15626 ft | 311 kts | 127° |
| 2026-04-21 20:26 | 54.61238 | 18.28301 | 15260 ft | 310 kts | 127° |
| 2026-04-21 20:26 | 54.59798 | 18.31057 | 14891 ft | 308 kts | 127° |
| 2026-04-21 20:26 | 54.58360 | 18.33804 | 14540 ft | 307 kts | 127° |
| 2026-04-21 20:27 | 54.56934 | 18.36529 | 14193 ft | 305 kts | 127° |
| 2026-04-21 20:27 | 54.55506 | 18.39245 | 13812 ft | 304 kts | 127° |
| 2026-04-21 20:27 | 54.54086 | 18.41931 | 13428 ft | 303 kts | 127° |
| 2026-04-21 20:27 | 54.52690 | 18.44573 | 13052 ft | 301 kts | 127° |
| 2026-04-21 20:28 | 54.51286 | 18.47236 | 12669 ft | 299 kts | 127° |
| 2026-04-21 20:28 | 54.49888 | 18.49886 | 12310 ft | 298 kts | 127° |
| 2026-04-21 20:28 | 54.48485 | 18.52548 | 11790 ft | 302 kts | 127° |
| 2026-04-21 20:28 | 54.47061 | 18.55243 | 11258 ft | 306 kts | 128° |
| 2026-04-21 20:29 | 54.45619 | 18.57969 | 10730 ft | 310 kts | 128° |
| 2026-04-21 20:29 | 54.44158 | 18.60728 | 10215 ft | 313 kts | 128° |
| 2026-04-21 20:29 | 54.42754 | 18.63536 | 9650 ft | 313 kts | 120° |
| 2026-04-21 20:29 | 54.41773 | 18.66830 | 9094 ft | 310 kts | 109° |
| 2026-04-21 20:30 | 54.40925 | 18.70273 | 8536 ft | 312 kts | 109° |
| 2026-04-21 20:30 | 54.40073 | 18.73697 | 7999 ft | 313 kts | 109° |
| 2026-04-21 20:30 | 54.39212 | 18.77141 | 7460 ft | 314 kts | 110° |
| 2026-04-21 20:30 | 54.38357 | 18.80556 | 6944 ft | 315 kts | 110° |
| 2026-04-21 20:31 | 54.37487 | 18.84018 | 6405 ft | 316 kts | 110° |
| 2026-04-21 20:31 | 54.36616 | 18.87477 | 5856 ft | 316 kts | 110° |
| 2026-04-21 20:31 | 54.35751 | 18.90906 | 5278 ft | 304 kts | 110° |
| 2026-04-21 20:31 | 54.34941 | 18.94104 | 5038 ft | 279 kts | 110° |
| 2026-04-21 20:32 | 54.34206 | 18.96992 | 4998 ft | 249 kts | 109° |
| 2026-04-21 20:32 | 54.33439 | 18.99586 | 5002 ft | 244 kts | 126° |
| 2026-04-21 20:32 | 54.32081 | 19.01257 | 5006 ft | 248 kts | 162° |
| 2026-04-21 20:32 | 54.30423 | 19.01376 | 5042 ft | 233 kts | 191° |
| 2026-04-21 20:33 | 54.28979 | 19.00489 | 5024 ft | 207 kts | 211° |
| 2026-04-21 20:33 | 54.27904 | 18.99096 | 4999 ft | 185 kts | 229° |
| 2026-04-21 20:33 | 54.27139 | 18.97380 | 5002 ft | 179 kts | 245° |
| 2026-04-21 20:33 | 54.26669 | 18.95441 | 5006 ft | 175 kts | 261° |
| 2026-04-21 20:34 | 54.26503 | 18.93403 | 5007 ft | 171 kts | 275° |
| 2026-04-21 20:34 | 54.26636 | 18.91412 | 5009 ft | 166 kts | 290° |
| 2026-04-21 20:34 | 54.27022 | 18.89597 | 5016 ft | 163 kts | 299° |
| 2026-04-21 20:34 | 54.27474 | 18.87807 | 5012 ft | 163 kts | 299° |
| 2026-04-21 20:35 | 54.27924 | 18.86020 | 5012 ft | 163 kts | 300° |
| 2026-04-21 20:35 | 54.28374 | 18.84231 | 4944 ft | 162 kts | 300° |
| 2026-04-21 20:35 | 54.28798 | 18.82539 | 4773 ft | 152 kts | 300° |
| 2026-04-21 20:35 | 54.29212 | 18.80891 | 4571 ft | 149 kts | 300° |
| 2026-04-21 20:36 | 54.29622 | 18.79263 | 4382 ft | 149 kts | 300° |
| 2026-04-21 20:36 | 54.30029 | 18.77640 | 4173 ft | 148 kts | 300° |
| 2026-04-21 20:36 | 54.30435 | 18.76022 | 3980 ft | 147 kts | 301° |
| 2026-04-21 20:36 | 54.30840 | 18.74406 | 3776 ft | 147 kts | 301° |
| 2026-04-21 20:37 | 54.31243 | 18.72800 | 3576 ft | 146 kts | 301° |
| 2026-04-21 20:37 | 54.31642 | 18.71205 | 3370 ft | 146 kts | 301° |
| 2026-04-21 20:37 | 54.32041 | 18.69611 | 3172 ft | 145 kts | 301° |
| 2026-04-21 20:37 | 54.32433 | 18.68041 | 2973 ft | 145 kts | 301° |
| 2026-04-21 20:38 | 54.32828 | 18.66457 | 2780 ft | 144 kts | 301° |
| 2026-04-21 20:38 | 54.33222 | 18.64881 | 2582 ft | 144 kts | 301° |
| 2026-04-21 20:38 | 54.33614 | 18.63306 | 2372 ft | 143 kts | 301° |
| 2026-04-21 20:38 | 54.34005 | 18.61740 | 2175 ft | 143 kts | 301° |
| 2026-04-21 20:39 | 54.34394 | 18.60175 | 1972 ft | 142 kts | 301° |
| 2026-04-21 20:39 | 54.34777 | 18.58637 | 1782 ft | 141 kts | 300° |
| 2026-04-21 20:39 | 54.35161 | 18.57088 | 1553 ft | 141 kts | 299° |
| 2026-04-21 20:39 | 54.35524 | 18.55524 | 1352 ft | 141 kts | 297° |
| 2026-04-21 20:40 | 54.35909 | 18.53981 | 1147 ft | 140 kts | 299° |
| 2026-04-21 20:40 | 54.36307 | 18.52466 | 951 ft | 140 kts | 296° |
| 2026-04-21 20:40 | 54.36686 | 18.50949 | 751 ft | 137 kts | 295° |
| 2026-04-21 20:40 | 54.37053 | 18.49466 | 586 ft | 136 kts | 294° |
| 2026-04-21 20:41 | 54.37414 | 18.48021 | 473 ft | 117 kts | 293° |
| 2026-04-21 20:41 | 54.37651 | 18.47062 | 457 ft | 45 kts | 295° |
| 2026-04-21 20:41 | 54.37837 | 18.46721 | 458 ft | 26 kts | 324° |
| 2026-04-21 20:41 | 54.37955 | 18.46586 | 459 ft | 15 kts | 343° |
| 2026-04-21 20:42 | 54.38056 | 18.46618 | 460 ft | 15 kts | 345° |
| 2026-04-21 20:42 | 54.38103 | 18.46466 | 460 ft | 15 kts | 292° |
| 2026-04-21 20:42 | 54.38139 | 18.46322 | 458 ft | 7 kts | 293° |
| 2026-04-21 20:42 | 54.38171 | 18.46301 | 459 ft | 5 kts | 7° |
| 2026-04-21 20:43 | 54.38190 | 18.46315 | 460 ft | 0 kts | 24° |